Time;durP1;ratioP1;P1;durP2;ratioP2;P2;SDS_P1;SDS_P2;PMS_P1;PMS_P2;Temp;Humidity;BMP_temperature;BMP_pressure;BME280_temperature;BME280_humidity;BME280_pressure;Samples;Min_cycle;Max_cycle;Signal;HPM_P1;HPM_P2
2022/05/13 00:00:11;;;;;;;6.27;1.83;;;11.50;1.00;;;;;;4972776;28;20171;-75
2022/05/13 00:02:37;;;;;;;4.90;1.50;;;11.40;14.70;;;;;;4973643;28;20209;-74
2022/05/13 00:05:04;;;;;;;2.73;1.33;;;11.40;13.00;;;;;;4972719;28;20175;-73
2022/05/13 00:07:30;;;;;;;6.63;1.60;;;11.30;65.50;;;;;;4972560;28;20174;-73
2022/05/13 00:10:05;;;;;;;3.23;1.80;;;11.20;90.40;;;;;;4973560;28;20182;-73
2022/05/13 00:12:38;;;;;;;4.20;1.50;;;11.20;99.20;;;;;;4972559;28;20216;-74
2022/05/13 00:15:05;;;;;;;6.70;1.60;;;11.10;99.90;;;;;;4974348;28;20155;-73
2022/05/13 00:17:31;;;;;;;3.17;1.53;;;11.10;99.90;;;;;;4973641;28;20241;-73
2022/05/13 00:19:57;;;;;;;3.67;1.60;;;11.00;99.90;;;;;;4972262;28;20210;-73
2022/05/13 00:22:22;;;;;;;3.40;1.80;;;11.00;99.90;;;;;;4974054;28;20171;-73
2022/05/13 00:24:48;;;;;;;3.97;1.60;;;11.00;99.90;;;;;;4973626;28;20167;-73
2022/05/13 00:27:17;;;;;;;4.23;1.53;;;11.00;99.90;;;;;;4972573;28;20186;-73
2022/05/13 00:29:42;;;;;;;5.87;1.57;;;11.00;99.90;;;;;;4973464;28;20200;-73
2022/05/13 00:32:08;;;;;;;4.83;1.57;;;11.00;99.90;;;;;;4973415;28;20253;-73
2022/05/13 00:34:34;;;;;;;2.60;1.50;;;10.90;99.90;;;;;;4973549;28;20236;-73
2022/05/13 00:37:00;;;;;;;2.47;1.43;;;10.80;99.90;;;;;;4973530;28;20214;-72
2022/05/13 00:39:26;;;;;;;5.50;1.40;;;10.80;99.90;;;;;;4973909;28;20201;-73
2022/05/13 00:41:53;;;;;;;6.30;2.10;;;10.80;99.90;;;;;;4973701;28;20536;-73
2022/05/13 00:44:19;;;;;;;4.37;1.90;;;10.70;99.90;;;;;;4973490;28;20171;-73
2022/05/13 00:46:44;;;;;;;3.83;1.20;;;10.60;99.90;;;;;;4974181;28;20239;-72
2022/05/13 00:49:14;;;;;;;3.50;1.53;;;10.60;99.90;;;;;;4973825;28;20576;-73
2022/05/13 00:51:43;;;;;;;4.67;1.70;;;10.60;99.90;;;;;;4973412;28;20675;-73
2022/05/13 00:54:12;;;;;;;5.40;1.67;;;10.50;99.90;;;;;;4973336;28;20193;-73
2022/05/13 00:56:42;;;;;;;7.63;2.10;;;10.50;99.90;;;;;;4973163;28;20198;-73
2022/05/13 00:59:12;;;;;;;4.03;1.77;;;10.40;99.90;;;;;;4973253;28;20259;-73
2022/05/13 01:01:37;;;;;;;7.53;2.43;;;10.40;99.90;;;;;;4972128;28;20221;-73
2022/05/13 01:04:07;;;;;;;6.53;1.67;;;10.30;99.90;;;;;;4973351;28;20170;-73
2022/05/13 01:06:34;;;;;;;2.43;1.63;;;10.30;99.90;;;;;;4972766;28;20198;-73
2022/05/13 01:09:00;;;;;;;2.77;1.87;;;10.30;99.90;;;;;;4973534;28;20195;-73
2022/05/13 01:11:29;;;;;;;3.50;1.70;;;10.20;99.90;;;;;;4973359;28;20185;-73
2022/05/13 01:14:02;;;;;;;2.70;1.70;;;10.20;99.90;;;;;;4971555;28;20198;-74
2022/05/13 01:16:28;;;;;;;2.33;1.77;;;10.20;99.90;;;;;;4972438;28;20198;-74
2022/05/13 01:18:54;;;;;;;4.00;1.70;;;10.20;99.90;;;;;;4971540;28;20281;-74
2022/05/13 01:21:29;;;;;;;6.57;2.17;;;10.10;99.90;;;;;;4973161;28;20644;-74
2022/05/13 01:23:54;;;;;;;4.57;2.00;;;10.00;99.90;;;;;;4971941;28;20529;-74
2022/05/13 01:26:25;;;;;;;5.50;2.30;;;10.00;99.90;;;;;;4971577;28;20183;-74
2022/05/13 01:28:53;;;;;;;3.07;1.60;;;10.00;99.90;;;;;;4971159;28;20198;-74
2022/05/13 01:31:29;;;;;;;2.37;1.63;;;9.90;99.90;;;;;;4972443;28;20572;-74
2022/05/13 01:33:55;;;;;;;6.30;2.00;;;9.90;99.90;;;;;;4972670;28;20503;-74
2022/05/13 01:36:21;;;;;;;2.93;2.10;;;9.80;99.90;;;;;;4972524;28;20201;-74
2022/05/13 01:38:48;;;;;;;4.77;2.10;;;9.80;99.90;;;;;;4971113;28;20554;-74
2022/05/13 01:41:14;;;;;;;5.80;2.30;;;9.80;99.90;;;;;;4972695;28;20167;-74
2022/05/13 01:43:42;;;;;;;6.87;2.60;;;9.80;99.90;;;;;;4972958;28;20304;-74
2022/05/13 01:46:09;;;;;;;4.77;1.77;;;9.70;99.90;;;;;;4971445;28;20219;-74
2022/05/13 01:48:35;;;;;;;4.03;2.33;;;9.70;99.90;;;;;;4972187;28;20269;-74
2022/05/13 01:51:01;;;;;;;4.73;1.90;;;9.70;99.90;;;;;;4970980;28;20186;-74
2022/05/13 01:53:27;;;;;;;5.30;2.03;;;9.60;99.90;;;;;;4972205;28;20208;-74
2022/05/13 01:55:53;;;;;;;5.33;2.30;;;9.70;99.90;;;;;;4972102;28;20231;-74
2022/05/13 01:58:21;;;;;;;4.07;2.00;;;9.60;99.90;;;;;;4972078;28;20259;-75
2022/05/13 02:00:48;;;;;;;4.73;2.23;;;9.60;99.90;;;;;;4971897;28;20553;-75
2022/05/13 02:05:59;;;;;;;2.73;2.00;;;9.50;99.90;;;;;;4972384;28;20166;-75
2022/05/13 02:08:25;;;;;;;4.77;1.97;;;9.50;99.90;;;;;;4970802;28;20703;-74
2022/05/13 02:10:51;;;;;;;5.70;2.10;;;9.50;99.90;;;;;;4971012;28;20181;-74
2022/05/13 02:13:17;;;;;;;4.33;2.47;;;9.50;99.90;;;;;;4972372;28;20178;-75
2022/05/13 02:15:43;;;;;;;4.03;2.13;;;9.50;99.90;;;;;;4970930;28;20719;-74
2022/05/13 02:18:09;;;;;;;4.87;2.20;;;9.40;99.90;;;;;;4970473;28;20292;-74
2022/05/13 02:20:36;;;;;;;3.27;2.20;;;9.40;99.90;;;;;;4970684;28;20201;-74
2022/05/13 02:23:02;;;;;;;8.87;2.80;;;9.40;99.90;;;;;;4971803;28;20170;-74
2022/05/13 02:25:30;;;;;;;5.93;2.43;;;9.40;99.90;;;;;;4970812;28;20212;-74
2022/05/13 02:27:57;;;;;;;5.83;2.60;;;9.40;99.90;;;;;;4970847;28;20256;-74
2022/05/13 02:30:24;;;;;;;4.57;2.77;;;9.40;99.90;;;;;;4972098;28;20232;-74
2022/05/13 02:32:49;;;;;;;4.77;2.70;;;9.30;99.90;;;;;;4970547;28;20178;-74
2022/05/13 02:35:15;;;;;;;5.03;2.27;;;9.30;99.90;;;;;;4971742;28;20182;-74
2022/05/13 02:37:41;;;;;;;4.43;2.60;;;9.30;99.90;;;;;;4971472;28;20209;-74
2022/05/13 02:40:07;;;;;;;4.23;2.57;;;9.30;99.90;;;;;;4971645;28;20174;-74
2022/05/13 02:42:32;;;;;;;7.37;2.87;;;9.30;99.90;;;;;;4970286;28;20178;-74
2022/05/13 02:44:58;;;;;;;5.03;2.50;;;9.40;99.90;;;;;;4970605;28;20175;-74
2022/05/13 02:47:24;;;;;;;6.93;2.97;;;9.50;99.90;;;;;;4971596;28;20605;-74
2022/05/13 02:50:17;;;;;;;6.53;2.70;;;9.60;99.90;;;;;;4970379;28;20174;-74
2022/05/13 02:52:35;;;;;;;3.63;2.40;;;9.70;99.90;;;;;;4971293;28;20671;-74
2022/05/13 02:55:00;;;;;;;5.83;2.63;;;9.80;99.90;;;;;;4971960;28;20174;-74
2022/05/13 02:57:26;;;;;;;10.67;2.70;;;9.90;99.90;;;;;;4971329;28;20287;-75
2022/05/13 02:59:51;;;;;;;10.13;2.53;;;10.00;99.90;;;;;;4970214;28;20205;-74
2022/05/13 03:02:17;;;;;;;4.17;2.17;;;10.00;99.90;;;;;;4971461;28;20679;-74
2022/05/13 03:04:43;;;;;;;3.43;2.10;;;10.10;99.90;;;;;;4971565;28;20163;-74
2022/05/13 03:07:08;;;;;;;7.63;2.80;;;10.10;99.90;;;;;;4970101;28;20552;-75
2022/05/13 03:09:34;;;;;;;4.20;2.30;;;10.10;99.90;;;;;;4971126;28;20226;-74
2022/05/13 03:12:00;;;;;;;5.07;2.20;;;10.10;99.90;;;;;;4970261;28;20179;-74
2022/05/13 03:14:25;;;;;;;2.60;1.90;;;10.10;99.90;;;;;;4970313;28;20257;-75
2022/05/13 03:16:51;;;;;;;5.17;2.67;;;10.20;99.90;;;;;;4971014;28;20283;-74
2022/05/13 03:19:16;;;;;;;4.97;2.20;;;10.20;99.90;;;;;;4971092;28;20562;-74
2022/05/13 03:21:42;;;;;;;6.73;2.47;;;10.20;99.90;;;;;;4969717;28;20178;-74
2022/05/13 03:24:08;;;;;;;5.67;1.80;;;10.20;99.90;;;;;;4968747;28;20182;-75
2022/05/13 03:26:33;;;;;;;5.57;1.90;;;10.20;99.90;;;;;;4971292;28;20175;-74
2022/05/13 03:28:59;;;;;;;8.67;1.90;;;10.30;99.90;;;;;;4970893;28;20210;-74
2022/05/13 03:31:24;;;;;;;4.80;1.90;;;10.30;99.90;;;;;;4970890;28;20184;-74
2022/05/13 03:33:50;;;;;;;6.57;1.93;;;10.30;99.90;;;;;;4969711;28;20273;-74
2022/05/13 03:36:16;;;;;;;4.00;1.70;;;10.30;99.90;;;;;;4969524;28;20293;-74
2022/05/13 03:38:41;;;;;;;6.27;1.80;;;10.30;99.90;;;;;;4972623;28;20228;-74
2022/05/13 03:41:08;;;;;;;12.40;2.33;;;10.30;99.90;;;;;;4974215;28;20182;-74
2022/05/13 03:43:33;;;;;;;4.37;1.83;;;10.30;99.90;;;;;;4974005;28;20733;-74
2022/05/13 03:45:59;;;;;;;4.60;1.80;;;10.30;99.90;;;;;;4974011;28;20174;-74
2022/05/13 03:48:25;;;;;;;5.47;2.00;;;10.30;99.90;;;;;;4973907;28;20191;-74
2022/05/13 03:50:50;;;;;;;3.67;1.90;;;10.20;99.90;;;;;;4974241;28;20167;-74
2022/05/13 03:53:16;;;;;;;3.33;1.67;;;10.10;99.90;;;;;;4972719;28;20283;-74
2022/05/13 03:55:42;;;;;;;3.33;1.80;;;10.10;99.90;;;;;;4974255;28;20220;-74
2022/05/13 03:58:08;;;;;;;3.80;1.80;;;10.00;99.90;;;;;;4973665;28;20287;-74
2022/05/13 04:00:34;;;;;;;7.63;1.90;;;9.90;99.90;;;;;;4974001;28;20214;-74
2022/05/13 04:03:00;;;;;;;4.00;1.70;;;9.70;99.90;;;;;;4973875;28;20174;-74
2022/05/13 04:10:54;;;;;;;4.70;1.70;;;9.90;99.90;;;;;;4973868;28;20169;-74
2022/05/13 04:16:04;;;;;;;9.50;2.20;;;9.90;99.90;;;;;;4973581;28;20318;-74
2022/05/13 04:18:31;;;;;;;7.10;2.20;;;10.00;99.90;;;;;;4972063;28;20332;-75
2022/05/13 04:20:57;;;;;;;6.97;1.60;;;10.00;99.90;;;;;;4973774;28;20581;-75
2022/05/13 04:23:23;;;;;;;7.37;1.90;;;10.10;99.90;;;;;;4973401;28;20186;-74
2022/05/13 04:25:48;;;;;;;5.43;2.00;;;10.20;99.90;;;;;;4973415;28;20635;-75
2022/05/13 04:28:14;;;;;;;6.03;2.00;;;10.20;99.90;;;;;;4971971;28;20198;-75
2022/05/13 04:30:40;;;;;;;8.10;1.87;;;10.30;99.90;;;;;;4971946;28;20640;-75
2022/05/13 04:33:05;;;;;;;3.63;1.63;;;10.30;99.90;;;;;;4973127;28;20181;-75
2022/05/13 04:35:31;;;;;;;8.23;2.27;;;10.30;99.90;;;;;;4973629;28;20178;-74
2022/05/13 04:37:57;;;;;;;5.03;1.83;;;10.40;99.90;;;;;;4971748;28;20218;-74
2022/05/13 04:40:22;;;;;;;7.00;1.83;;;10.50;99.90;;;;;;4973044;28;20554;-75
2022/05/13 04:42:51;;;;;;;8.57;1.97;;;10.50;99.90;;;;;;4973176;28;20527;-74
2022/05/13 04:45:25;;;;;;;7.43;1.50;;;10.50;99.90;;;;;;4973375;28;20632;-74
2022/05/13 04:50:40;;;;;;;6.70;2.00;;;10.60;99.90;;;;;;4972107;28;20161;-75
2022/05/13 04:53:08;;;;;;;4.57;2.13;;;10.60;99.90;;;;;;4972821;28;20261;-74
2022/05/13 04:55:34;;;;;;;5.90;2.00;;;10.60;99.90;;;;;;4972845;28;20679;-74
2022/05/13 04:58:00;;;;;;;6.17;2.10;;;10.60;99.90;;;;;;4972495;28;20716;-74
2022/05/13 05:00:26;;;;;;;6.00;1.57;;;10.60;99.90;;;;;;4972821;28;20163;-75
2022/05/13 05:02:51;;;;;;;5.57;1.70;;;10.70;99.90;;;;;;4972670;28;20181;-75
2022/05/13 05:05:17;;;;;;;5.67;2.10;;;10.70;99.90;;;;;;4972856;28;20210;-74
2022/05/13 05:07:42;;;;;;;5.60;2.00;;;10.70;99.90;;;;;;4972672;28;20201;-75
2022/05/13 05:10:09;;;;;;;8.20;2.20;;;10.80;99.90;;;;;;4971482;28;20205;-73
2022/05/13 05:12:36;;;;;;;3.27;1.63;;;10.80;99.90;;;;;;4972801;28;20257;-78
2022/05/13 05:15:02;;;;;;;5.37;1.93;;;10.80;88.40;;;;;;4973995;28;20174;-76
2022/05/13 05:17:27;;;;;;;5.93;1.90;;;10.90;99.90;;;;;;4972512;28;20209;-76
2022/05/13 05:19:53;;;;;;;4.60;2.20;;;11.00;99.90;;;;;;4971163;28;20181;-75
2022/05/13 05:22:18;;;;;;;7.87;2.10;;;11.00;99.90;;;;;;4971764;28;20175;-78
2022/05/13 05:24:46;;;;;;;10.00;2.03;;;11.00;95.50;;;;;;4973361;28;20179;-78
2022/05/13 05:27:12;;;;;;;4.50;1.77;;;11.00;89.10;;;;;;4975355;28;20166;-78
2022/05/13 05:29:38;;;;;;;3.57;1.60;;;11.10;91.30;;;;;;4975212;28;20248;-78
2022/05/13 05:32:04;;;;;;;3.60;1.90;;;11.10;99.90;;;;;;4976755;28;20178;-78
2022/05/13 05:34:30;;;;;;;5.37;1.83;;;11.10;99.90;;;;;;4976393;28;20227;-78
2022/05/13 05:36:55;;;;;;;9.30;2.40;;;11.10;99.90;;;;;;4973978;28;20289;-78
2022/05/13 05:39:21;;;;;;;8.97;2.20;;;11.10;99.90;;;;;;4974138;28;20668;-78
2022/05/13 05:41:46;;;;;;;10.50;2.30;;;11.20;99.90;;;;;;4975395;28;20192;-78
2022/05/13 05:44:12;;;;;;;8.30;2.13;;;11.20;99.90;;;;;;4975596;28;20174;-78
2022/05/13 05:46:38;;;;;;;8.23;2.60;;;11.20;99.90;;;;;;4972886;28;20709;-77
2022/05/13 05:49:04;;;;;;;7.87;2.20;;;11.30;99.90;;;;;;4972024;28;20757;-77
2022/05/13 05:51:30;;;;;;;12.37;2.50;;;11.30;99.90;;;;;;4970686;28;20639;-76
2022/05/13 05:59:24;;;;;;;8.60;2.60;;;11.40;19.30;;;;;;4952548;28;20217;-76
2022/05/13 06:01:50;;;;;;;6.43;2.67;;;11.50;1.00;;;;;;4951080;29;20243;-76
2022/05/13 06:04:15;;;;;;;6.60;2.43;;;11.50;1.00;;;;;;5038205;22;20263;-77
2022/05/13 06:06:41;;;;;;;9.03;2.63;;;11.50;28.90;;;;;;5057851;28;20198;-77
2022/05/13 06:09:08;;;;;;;12.53;2.83;;;11.60;1.00;;;;;;5054285;28;20171;-78
2022/05/13 06:11:33;;;;;;;9.67;2.57;;;11.60;1.00;;;;;;5034633;28;20180;-77
2022/05/13 06:13:59;;;;;;;6.10;2.57;;;11.70;1.00;;;;;;5035440;28;20199;-77
2022/05/13 06:16:27;;;;;;;8.43;2.53;;;11.70;1.00;;;;;;5035557;28;20222;-76
2022/05/13 06:18:54;;;;;;;11.00;2.77;;;11.70;1.00;;;;;;5053843;28;20175;-76
2022/05/13 06:21:20;;;;;;;9.27;2.50;;;11.80;1.00;;;;;;5053872;28;20164;-77
2022/05/13 06:23:45;;;;;;;6.43;2.20;;;11.80;1.00;;;;;;5053423;28;20198;-77
2022/05/13 06:26:11;;;;;;;8.17;2.23;;;12.00;1.00;;;;;;5053190;28;20229;-77
2022/05/13 06:28:36;;;;;;;8.40;2.40;;;12.00;1.00;;;;;;5052894;28;20212;-76
2022/05/13 06:31:02;;;;;;;7.93;2.27;;;12.10;99.90;;;;;;5052802;28;20206;-77
2022/05/13 06:33:28;;;;;;;8.13;2.80;;;12.10;99.90;;;;;;5052746;28;20187;-76
2022/05/13 06:35:53;;;;;;;7.83;2.17;;;12.20;99.90;;;;;;5052709;28;20540;-76
2022/05/13 06:38:21;;;;;;;6.77;2.77;;;12.30;99.90;;;;;;5052788;28;20219;-77
2022/05/13 06:40:48;;;;;;;10.10;2.57;;;12.40;94.40;;;;;;5052677;28;20175;-77
2022/05/13 06:43:13;;;;;;;7.77;2.53;;;12.50;1.00;;;;;;5052816;28;20271;-76
2022/05/13 06:45:39;;;;;;;5.97;2.67;;;12.60;1.00;;;;;;5052601;28;20195;-76
2022/05/13 06:48:05;;;;;;;9.17;2.23;;;12.70;1.00;;;;;;5052918;28;20645;-77
2022/05/13 06:50:32;;;;;;;7.17;2.50;;;12.90;1.00;;;;;;5034832;28;20524;-77
2022/05/13 06:52:58;;;;;;;8.73;1.90;;;13.00;1.00;;;;;;5052510;28;20195;-76
2022/05/13 06:55:23;;;;;;;7.67;2.43;;;13.00;99.90;;;;;;5034524;28;20180;-76
2022/05/13 06:57:49;;;;;;;6.13;2.43;;;13.10;25.40;;;;;;5052392;28;20192;-76
2022/05/13 07:00:16;;;;;;;11.13;2.50;;;13.20;1.00;;;;;;5034528;28;20175;-76
2022/05/13 07:02:42;;;;;;;7.13;2.47;;;13.20;1.00;;;;;;5052350;28;20175;-76
2022/05/13 07:05:10;;;;;;;10.70;2.73;;;13.30;1.00;;;;;;5052433;28;20164;-76
2022/05/13 07:07:36;;;;;;;5.97;2.27;;;13.30;99.90;;;;;;5034754;28;20187;-76
2022/05/13 07:10:02;;;;;;;9.37;2.13;;;13.30;99.90;;;;;;5035706;28;20604;-77
2022/05/13 07:12:29;;;;;;;8.63;2.30;;;13.40;1.00;;;;;;5053874;28;20607;-76
2022/05/13 07:14:54;;;;;;;7.37;2.20;;;13.50;99.90;;;;;;5056153;28;20172;-75
2022/05/13 07:17:20;;;;;;;8.60;2.30;;;13.50;1.00;;;;;;5056001;28;20217;-76
2022/05/13 07:19:46;;;;;;;6.73;2.03;;;13.50;1.00;;;;;;5056174;28;20240;-77
2022/05/13 07:22:11;;;;;;;6.47;2.20;;;13.60;1.00;;;;;;5056210;28;20561;-76
2022/05/13 07:24:37;;;;;;;11.13;2.83;;;13.70;99.90;;;;;;5055965;28;20205;-77
2022/05/13 07:27:03;;;;;;;7.13;2.23;;;13.80;1.00;;;;;;5056168;28;20175;-77
2022/05/13 07:29:28;;;;;;;10.97;2.80;;;13.80;1.00;;;;;;5038076;28;20576;-76
2022/05/13 07:31:54;;;;;;;11.63;2.87;;;13.80;99.90;;;;;;5056196;28;20654;-76
2022/05/13 07:34:19;;;;;;;9.50;2.57;;;13.80;1.00;;;;;;5056403;28;20249;-76
2022/05/13 07:36:46;;;;;;;10.27;2.20;;;13.90;1.00;;;;;;5055534;28;20276;-76
2022/05/13 07:41:56;;;;;;;6.13;2.27;;;13.90;1.00;;;;;;5056009;28;20217;-76
2022/05/13 07:44:21;;;;;;;7.43;2.30;;;13.90;1.00;;;;;;5055566;28;20187;-76
2022/05/13 07:46:47;;;;;;;7.77;2.03;;;14.00;99.90;;;;;;5037741;28;20531;-76
2022/05/13 07:49:15;;;;;;;5.87;2.57;;;14.20;99.90;;;;;;5037998;28;20231;-76
2022/05/13 07:51:41;;;;;;;7.07;2.60;;;14.20;1.00;;;;;;5037599;28;20183;-77
2022/05/13 07:54:06;;;;;;;11.10;2.50;;;14.20;1.00;;;;;;5055874;28;20282;-78
2022/05/13 07:56:32;;;;;;;9.80;2.50;;;14.30;99.90;;;;;;5055915;28;20231;-76
2022/05/13 07:59:00;;;;;;;5.17;2.40;;;14.30;99.90;;;;;;5055226;28;20171;-76
2022/05/13 08:01:26;;;;;;;5.87;2.60;;;14.40;1.00;;;;;;5055498;28;20190;-76
2022/05/13 08:03:52;;;;;;;9.10;2.50;;;14.30;1.00;;;;;;5055158;28;20286;-77
2022/05/13 08:06:18;;;;;;;8.50;2.07;;;14.50;37.20;;;;;;5055446;28;20179;-76
2022/05/13 08:08:45;;;;;;;8.63;2.53;;;14.50;99.90;;;;;;5055295;28;20172;-76
2022/05/13 08:11:14;;;;;;;13.00;2.80;;;14.60;1.00;;;;;;5055092;28;20172;-76
2022/05/13 08:13:40;;;;;;;14.03;2.70;;;14.70;99.90;;;;;;5037081;28;20191;-77
2022/05/13 08:16:08;;;;;;;11.17;2.50;;;14.80;1.00;;;;;;5037110;28;20276;-77
2022/05/13 08:18:35;;;;;;;5.30;2.20;;;14.90;1.00;;;;;;5037197;28;20191;-76
2022/05/13 08:21:01;;;;;;;7.93;2.67;;;14.90;12.30;;;;;;5054926;28;20172;-76
2022/05/13 08:23:27;;;;;;;8.77;2.70;;;14.90;99.90;;;;;;5036680;28;20204;-77
2022/05/13 08:25:53;;;;;;;4.10;2.20;;;15.00;99.90;;;;;;5037099;28;20176;-76
2022/05/13 08:28:22;;;;;;;8.77;2.60;;;15.10;1.00;;;;;;5054868;28;20251;-76
2022/05/13 08:30:49;;;;;;;9.60;2.30;;;15.20;99.90;;;;;;5054867;28;20202;-76
2022/05/13 08:33:15;;;;;;;12.33;2.60;;;15.40;1.00;;;;;;5054834;28;20744;-76
2022/05/13 08:35:47;;;;;;;8.87;2.27;;;15.50;1.00;;;;;;5036915;28;20278;-77
2022/05/13 08:38:18;;;;;;;7.00;2.23;;;15.60;99.90;;;;;;5037006;28;20195;-76
2022/05/13 08:40:50;;;;;;;10.00;2.57;;;15.60;99.90;;;;;;5036745;28;20207;-75
2022/05/13 08:43:27;;;;;;;8.80;2.30;;;15.60;99.90;;;;;;5054906;28;20206;-76
2022/05/13 08:45:56;;;;;;;8.13;1.90;;;15.60;1.00;;;;;;5036792;28;20172;-76
2022/05/13 08:48:52;;;;;;;5.73;2.20;;;15.70;1.00;;;;;;5054783;28;20197;-75
2022/05/13 08:51:27;;;;;;;9.33;2.80;;;15.70;1.00;;;;;;5054459;28;20168;-75
2022/05/13 08:54:03;;;;;;;8.07;2.50;;;15.70;1.00;;;;;;5054310;28;20190;-76
2022/05/13 08:56:30;;;;;;;8.90;2.73;;;15.60;99.90;;;;;;5054470;28;20202;-75
2022/05/13 08:59:07;;;;;;;9.60;2.80;;;15.60;23.40;;;;;;5054392;28;20176;-76
2022/05/13 09:01:42;;;;;;;6.80;2.43;;;15.70;1.00;;;;;;5054518;28;20158;-75
2022/05/13 09:04:13;;;;;;;7.83;2.23;;;15.80;1.00;;;;;;5036338;28;20758;-76
2022/05/13 09:06:49;;;;;;;6.73;2.10;;;15.90;99.90;;;;;;5054110;28;20167;-74
2022/05/13 09:09:15;;;;;;;10.37;2.30;;;15.90;99.90;;;;;;5054369;28;20170;-76
2022/05/13 09:11:43;;;;;;;7.37;2.00;;;16.10;99.90;;;;;;5054071;28;20179;-76
2022/05/13 09:14:29;;;;;;;7.73;2.07;;;16.10;99.90;;;;;;5035986;28;20196;-75
2022/05/13 09:17:25;;;;;;;6.00;1.70;;;16.10;99.90;;;;;;5053908;28;20278;-75
2022/05/13 09:19:57;;;;;;;7.07;1.80;;;16.20;99.90;;;;;;5016142;28;20263;-75
2022/05/13 09:22:22;;;;;;;7.27;1.80;;;16.40;1.00;;;;;;5033848;28;20187;-75
2022/05/13 09:24:49;;;;;;;7.03;2.03;;;16.50;1.00;;;;;;5016067;28;20678;-75
2022/05/13 09:27:14;;;;;;;4.37;2.10;;;16.60;99.90;;;;;;5016066;28;20187;-76
2022/05/13 09:29:45;;;;;;;7.33;2.00;;;16.60;37.60;;;;;;5015999;28;20671;-75
2022/05/13 09:32:29;;;;;;;6.57;2.20;;;16.60;99.90;;;;;;5015935;28;20191;-75
2022/05/13 09:35:12;;;;;;;6.90;1.83;;;16.50;1.00;;;;;;5016139;28;20668;-79
2022/05/13 09:37:41;;;;;;;8.57;1.73;;;16.50;1.00;;;;;;5033737;28;20739;-76
2022/05/13 09:40:24;;;;;;;6.00;1.60;;;16.50;32.00;;;;;;5034001;28;20175;-76
2022/05/13 09:42:56;;;;;;;5.00;1.87;;;16.60;1.00;;;;;;5016527;28;20678;-76
2022/05/13 09:45:35;;;;;;;6.80;1.87;;;16.50;99.90;;;;;;5023684;28;20260;-77
2022/05/13 09:48:21;;;;;;;6.43;2.30;;;16.50;1.00;;;;;;5035663;28;20636;-78
2022/05/13 09:50:53;;;;;;;7.00;1.80;;;16.60;99.90;;;;;;5035256;28;20192;-78
2022/05/13 09:53:21;;;;;;;4.83;1.97;;;16.60;99.90;;;;;;5034519;28;20279;-78
2022/05/13 09:55:50;;;;;;;4.80;1.83;;;16.80;1.00;;;;;;5017220;28;20180;-78
2022/05/13 09:58:24;;;;;;;7.00;1.77;;;16.90;1.00;;;;;;5015774;28;20334;-76
2022/05/13 10:01:00;;;;;;;8.00;2.00;;;17.00;1.00;;;;;;5034104;28;20688;-77
2022/05/13 10:03:29;;;;;;;7.10;1.80;;;17.20;1.00;;;;;;5033484;28;20277;-75
2022/05/13 10:06:17;;;;;;;5.13;1.90;;;17.20;99.90;;;;;;5032071;28;20168;-77
2022/05/13 10:14:36;;;;;;;5.57;1.53;;;16.80;1.00;;;;;;5033306;28;20250;-76
2022/05/13 10:17:23;;;;;;;3.50;1.53;;;16.70;99.90;;;;;;5033512;28;20681;-76
2022/05/13 10:19:55;;;;;;;6.73;1.80;;;16.60;99.90;;;;;;5033216;28;20163;-76
2022/05/13 10:22:48;;;;;;;5.83;1.40;;;16.50;99.90;;;;;;5025311;28;20187;-76
2022/05/13 10:25:32;;;;;;;7.57;1.67;;;16.50;99.90;;;;;;5053446;28;20215;-77
2022/05/13 10:28:04;;;;;;;5.13;1.57;;;16.50;66.20;;;;;;5053295;28;20159;-76
2022/05/13 10:30:33;;;;;;;6.33;1.60;;;16.50;99.90;;;;;;5034977;28;20537;-74
2022/05/13 10:33:10;;;;;;;4.53;1.60;;;16.60;99.90;;;;;;5019027;28;20207;-74
2022/05/13 10:36:04;;;;;;;9.30;2.10;;;16.70;99.90;;;;;;5032846;28;20164;-74
2022/05/13 10:38:44;;;;;;;10.30;1.70;;;16.80;1.00;;;;;;5031539;28;20739;-74
2022/05/13 10:41:21;;;;;;;6.00;1.20;;;17.00;1.00;;;;;;5032854;28;20283;-74
2022/05/13 10:43:54;;;;;;;4.50;1.23;;;17.00;1.00;;;;;;5033837;28;20195;-75
2022/05/13 10:46:24;;;;;;;4.23;1.20;;;17.00;99.90;;;;;;5034905;28;20510;-75
2022/05/13 10:48:52;;;;;;;7.30;1.70;;;17.00;1.00;;;;;;5055125;28;20164;-73
2022/05/13 10:51:34;;;;;;;4.97;1.33;;;17.00;1.00;;;;;;5037908;28;20223;-74
2022/05/13 10:54:24;;;;;;;9.37;1.70;;;17.20;1.00;;;;;;5056829;28;20191;-74
2022/05/13 10:57:04;;;;;;;5.17;1.40;;;17.10;99.90;;;;;;5056525;28;20666;-74
2022/05/13 10:59:56;;;;;;;5.03;1.67;;;17.20;99.90;;;;;;5056546;28;20242;-74
2022/05/13 11:02:50;;;;;;;4.57;1.27;;;17.30;99.90;;;;;;5054712;28;20538;-74
2022/05/13 11:06:03;;;;;;;4.40;1.57;;;17.30;99.90;;;;;;5038558;28;20282;-74
2022/05/13 11:08:35;;;;;;;3.57;1.30;;;17.30;99.90;;;;;;4975564;28;20240;-74
2022/05/13 11:11:35;;;;;;;5.00;0.97;;;17.30;99.90;;;;;;5040015;28;20188;-75
2022/05/13 11:14:20;;;;;;;4.27;1.60;;;17.30;99.90;;;;;;5034194;28;20199;-75
2022/05/13 11:17:26;;;;;;;4.27;1.70;;;17.40;99.90;;;;;;5056416;28;20274;-73
2022/05/13 11:20:20;;;;;;;3.67;1.37;;;17.50;99.90;;;;;;5011043;28;20187;-76
2022/05/13 11:22:51;;;;;;;3.43;1.20;;;17.70;99.90;;;;;;5056006;28;20160;-74
2022/05/13 11:25:55;;;;;;;3.33;1.30;;;17.70;99.90;;;;;;5054974;28;20258;-76
2022/05/13 11:28:49;;;;;;;2.87;1.50;;;17.70;99.90;;;;;;5056015;28;20159;-73
2022/05/13 11:31:46;;;;;;;3.97;1.40;;;17.70;99.90;;;;;;5038260;28;20637;-74
2022/05/13 11:34:15;;;;;;;6.43;1.97;;;17.80;99.90;;;;;;5054665;28;20562;-74
2022/05/13 11:37:02;;;;;;;6.83;1.97;;;18.00;99.90;;;;;;5037994;28;20306;-76
2022/05/13 11:39:56;;;;;;;5.93;1.67;;;18.20;99.90;;;;;;5056100;28;20156;-74
2022/05/13 11:46:01;;;;;;;10.67;2.43;;;18.20;25.20;;;;;;5055369;28;20186;-78
2022/05/13 11:48:41;;;;;;;10.77;1.77;;;18.30;1.00;;;;;;5056881;28;20202;-78
2022/05/13 11:51:15;;;;;;;6.23;1.70;;;18.30;99.90;;;;;;5037919;28;20178;-78
2022/05/13 11:53:52;;;;;;;4.13;1.53;;;18.30;1.00;;;;;;5040295;28;20187;-78
2022/05/13 11:56:29;;;;;;;3.03;1.50;;;18.20;36.30;;;;;;5057379;28;20664;-78
2022/05/13 11:59:32;;;;;;;3.97;2.30;;;18.20;99.90;;;;;;5059329;28;20179;-79
2022/05/13 12:02:12;;;;;;;4.63;2.10;;;18.50;12.80;;;;;;5042979;28;20655;-78
2022/05/13 12:05:06;;;;;;;9.47;2.60;;;18.20;1.00;;;;;;5042208;28;20215;-79
2022/05/13 12:07:56;;;;;;;4.90;1.80;;;18.20;1.00;;;;;;5043531;28;20184;-79
2022/05/13 12:10:42;;;;;;;5.07;1.90;;;18.20;10.60;;;;;;5061161;28;20190;-80
2022/05/13 12:13:18;;;;;;;5.90;1.93;;;18.30;1.00;;;;;;5060381;28;20202;-78
2022/05/13 12:16:09;;;;;;;3.60;1.77;;;18.40;55.80;;;;;;5043822;28;20211;-79
2022/05/13 12:18:53;;;;;;;6.10;2.53;;;18.50;77.60;;;;;;5060449;28;20229;-78
2022/05/13 12:21:38;;;;;;;5.13;1.60;;;18.60;1.00;;;;;;5060273;28;20175;-79
2022/05/13 12:24:19;;;;;;;3.90;1.90;;;18.60;1.00;;;;;;5061345;28;20188;-79
2022/05/13 12:26:54;;;;;;;5.33;1.93;;;18.40;1.00;;;;;;5044651;28;20175;-79
2022/05/13 12:29:38;;;;;;;4.63;1.70;;;18.40;46.60;;;;;;5043692;28;20235;-79
2022/05/13 12:32:04;;;;;;;6.67;1.50;;;18.60;18.30;;;;;;5043650;28;20171;-79
2022/05/13 12:37:45;;;;;;;4.97;2.07;;;18.60;10.00;;;;;;5056787;28;20202;-75
2022/05/13 12:40:16;;;;;;;4.47;1.90;;;18.70;1.00;;;;;;5055012;28;20164;-75
2022/05/13 12:43:19;;;;;;;4.67;1.60;;;18.70;1.00;;;;;;5054989;28;20539;-75
2022/05/13 12:46:07;;;;;;;4.93;1.87;;;18.70;1.00;;;;;;5037040;28;20254;-75
2022/05/13 12:48:32;;;;;;;2.57;1.50;;;19.00;10.20;;;;;;5054599;28;20180;-75
2022/05/13 12:51:10;;;;;;;4.70;1.50;;;19.10;1.00;;;;;;5036890;28;20176;-75
2022/05/13 12:53:41;;;;;;;3.97;1.43;;;19.00;1.00;;;;;;5054744;28;20200;-75
2022/05/13 12:56:13;;;;;;;11.87;1.60;;;18.90;1.00;;;;;;5054463;28;20198;-75
2022/05/13 12:58:43;;;;;;;3.63;1.57;;;18.90;1.00;;;;;;5054348;28;20679;-75
2022/05/13 13:01:11;;;;;;;6.87;1.83;;;19.00;1.00;;;;;;5054890;28;20164;-75
2022/05/13 13:03:39;;;;;;;3.13;1.63;;;18.90;1.00;;;;;;5053970;28;20210;-75
2022/05/13 13:06:11;;;;;;;5.03;1.77;;;18.90;1.00;;;;;;5036146;28;20217;-75
2022/05/13 13:08:43;;;;;;;6.03;1.67;;;18.90;1.00;;;;;;5036522;28;20171;-75
2022/05/13 13:11:18;;;;;;;4.17;1.63;;;18.80;1.00;;;;;;5035429;28;20179;-76
2022/05/13 13:14:01;;;;;;;4.00;1.10;;;18.80;1.00;;;;;;5056390;28;20552;-76
2022/05/13 13:16:41;;;;;;;4.23;1.90;;;18.80;1.00;;;;;;5056235;28;20164;-76
2022/05/13 13:19:11;;;;;;;4.20;1.37;;;18.90;12.90;;;;;;5054559;28;20637;-76
2022/05/13 13:21:38;;;;;;;7.13;1.87;;;19.00;1.00;;;;;;5055188;28;20243;-76
2022/05/13 13:24:17;;;;;;;10.00;1.70;;;19.10;1.00;;;;;;5052531;28;20199;-76
2022/05/13 13:26:47;;;;;;;5.93;1.60;;;19.30;1.00;;;;;;5037156;28;20582;-78
2022/05/13 13:29:20;;;;;;;5.00;1.97;;;19.40;1.00;;;;;;5037033;28;20191;-77
2022/05/13 13:31:48;;;;;;;4.47;1.67;;;19.60;1.00;;;;;;5054725;28;20164;-79
2022/05/13 13:34:45;;;;;;;5.13;1.40;;;19.60;1.00;;;;;;5036874;28;20218;-78
2022/05/13 13:37:13;;;;;;;4.10;1.53;;;19.80;1.00;;;;;;5040631;28;20211;-77
2022/05/13 13:39:39;;;;;;;3.33;1.20;;;19.70;1.00;;;;;;5026414;28;20176;-77
2022/05/13 13:42:07;;;;;;;7.53;1.63;;;19.60;1.00;;;;;;5053247;28;20250;-78